createdAt,value
2019-01-20T00:00:01.772Z,16.27
2019-01-20T00:02:29.089Z,16.27
2019-01-20T00:04:56.288Z,16.28
2019-01-20T00:07:23.481Z,16.28
2019-01-20T00:09:50.789Z,16.24
2019-01-20T00:12:18.025Z,16.23
2019-01-20T00:14:45.191Z,16.24
2019-01-20T00:17:12.445Z,16.27
2019-01-20T00:19:39.551Z,16.27
2019-01-20T00:22:06.798Z,16.28
2019-01-20T00:24:33.954Z,16.27
2019-01-20T00:27:01.123Z,16.28
2019-01-20T00:29:28.322Z,16.28
2019-01-20T00:31:55.485Z,16.27
2019-01-20T00:34:22.738Z,16.26
2019-01-20T00:36:49.896Z,16.23
2019-01-20T00:39:17.117Z,16.24
2019-01-20T00:41:44.292Z,16.29
2019-01-20T00:44:11.507Z,16.23
2019-01-20T00:46:38.663Z,16.23
2019-01-20T00:49:05.897Z,16.21
2019-01-20T00:51:33.567Z,16.21
2019-01-20T00:54:00.981Z,16.23
2019-01-20T00:56:28.187Z,16.21
2019-01-20T00:58:55.491Z,16.21
2019-01-20T01:01:22.667Z,16.16
2019-01-20T01:03:49.880Z,16.16
2019-01-20T01:06:17.205Z,16.16
2019-01-20T01:08:44.389Z,16.18
2019-01-20T01:11:11.550Z,16.14
2019-01-20T01:13:38.799Z,16.18
2019-01-20T01:16:06.004Z,16.18
2019-01-20T01:18:33.206Z,16.20
2019-01-20T01:21:00.454Z,16.21
2019-01-20T01:23:27.639Z,16.15
2019-01-20T01:25:54.789Z,16.15
2019-01-20T01:28:21.996Z,16.20
2019-01-20T01:30:49.154Z,16.17
2019-01-20T01:33:16.336Z,16.17
2019-01-20T01:35:43.516Z,16.19
2019-01-20T01:38:10.712Z,16.18
2019-01-20T01:40:37.939Z,16.15
2019-01-20T01:43:05.150Z,16.15
2019-01-20T01:45:32.427Z,16.14
2019-01-20T01:47:59.643Z,16.12
2019-01-20T01:50:26.877Z,16.17
2019-01-20T01:52:54.039Z,16.16
2019-01-20T01:55:21.221Z,16.15
2019-01-20T01:57:48.413Z,16.12
2019-01-20T02:00:18.051Z,16.14
2019-01-20T02:02:45.254Z,16.07
2019-01-20T02:05:12.573Z,16.07
2019-01-20T02:07:39.732Z,16.09
2019-01-20T02:10:09.314Z,16.13
2019-01-20T02:12:36.521Z,16.12
2019-01-20T02:15:04.496Z,16.12
2019-01-20T02:17:31.720Z,16.13
2019-01-20T02:19:58.882Z,16.12
2019-01-20T02:22:26.089Z,16.10
2019-01-20T02:24:53.260Z,16.18
2019-01-20T02:27:20.456Z,16.16
2019-01-20T02:29:47.688Z,16.12
2019-01-20T02:32:14.874Z,16.09
2019-01-20T02:34:42.056Z,16.09
2019-01-20T02:37:09.263Z,16.10
2019-01-20T02:39:36.490Z,16.08
2019-01-20T02:42:03.647Z,16.08
2019-01-20T02:44:30.855Z,16.11
2019-01-20T02:46:58.060Z,16.17
2019-01-20T02:49:25.291Z,16.14
2019-01-20T02:51:52.601Z,16.06
2019-01-20T02:54:19.780Z,16.09
2019-01-20T02:56:46.963Z,16.07
2019-01-20T02:59:14.171Z,16.07
2019-01-20T03:01:41.700Z,16.07
2019-01-20T03:04:08.855Z,16.06
2019-01-20T03:06:36.055Z,16.09
2019-01-20T03:09:07.657Z,16.08
2019-01-20T03:11:34.924Z,16.10
2019-01-20T03:14:02.072Z,16.09
2019-01-20T03:16:29.270Z,16.01
2019-01-20T03:18:56.952Z,16.03
2019-01-20T03:21:24.093Z,16.03
2019-01-20T03:23:51.295Z,16.07
2019-01-20T03:26:18.507Z,16.07
2019-01-20T03:28:45.688Z,16.09
2019-01-20T03:31:12.880Z,16.07
2019-01-20T03:33:40.115Z,16.06
2019-01-20T03:36:07.275Z,16.04
2019-01-20T03:38:34.466Z,16.06
2019-01-20T03:41:01.700Z,16.04
2019-01-20T03:43:28.878Z,16.04
2019-01-20T03:45:56.106Z,16.05
2019-01-20T03:48:23.257Z,16.05
2019-01-20T03:50:50.494Z,16.01
2019-01-20T03:53:17.704Z,16.06
2019-01-20T03:55:44.866Z,16.05
2019-01-20T03:58:12.077Z,16.07
2019-01-20T04:00:39.381Z,16.02
2019-01-20T04:03:06.649Z,16.03
2019-01-20T04:05:33.846Z,16.06
2019-01-20T04:08:01.055Z,16.04
2019-01-20T04:10:28.277Z,16.04
2019-01-20T04:12:55.519Z,15.98
2019-01-20T04:15:22.658Z,15.95
2019-01-20T04:17:49.880Z,16.01
2019-01-20T04:20:17.079Z,16.01
2019-01-20T04:22:44.228Z,16.00
2019-01-20T04:25:12.144Z,15.99
2019-01-20T04:27:39.353Z,15.98
2019-01-20T04:30:08.072Z,16.02
2019-01-20T04:32:35.234Z,16.02
2019-01-20T04:35:02.492Z,16.04
2019-01-20T04:37:29.650Z,16.08
2019-01-20T04:39:56.873Z,16.10
2019-01-20T04:42:29.055Z,16.10
2019-01-20T04:44:53.179Z,16.14
2019-01-20T04:47:20.350Z,16.13
2019-01-20T04:49:47.539Z,16.13
2019-01-20T04:52:14.726Z,16.09
2019-01-20T04:54:41.897Z,16.09
2019-01-20T04:57:09.194Z,16.10
2019-01-20T04:59:36.412Z,16.10
2019-01-20T05:02:03.651Z,16.11
2019-01-20T05:04:30.844Z,16.07
2019-01-20T05:06:58.070Z,16.11
2019-01-20T05:09:25.224Z,16.15
2019-01-20T05:11:52.442Z,16.18
2019-01-20T05:14:19.622Z,16.17
2019-01-20T05:16:46.857Z,16.16
2019-01-20T05:19:14.060Z,16.17
2019-01-20T05:21:41.339Z,16.19
2019-01-20T05:24:08.526Z,16.17
2019-01-20T05:26:35.686Z,16.18
2019-01-20T05:29:02.850Z,16.22
2019-01-20T05:31:30.011Z,16.23
2019-01-20T05:33:57.341Z,16.23
2019-01-20T05:36:24.494Z,16.24
2019-01-20T05:38:51.665Z,16.22
2019-01-20T05:41:18.881Z,16.22
2019-01-20T05:43:46.063Z,16.25
2019-01-20T05:46:13.261Z,16.23
2019-01-20T05:48:40.490Z,16.26
2019-01-20T05:51:07.671Z,16.26
2019-01-20T05:53:34.929Z,16.28
2019-01-20T05:56:02.203Z,16.29
2019-01-20T05:58:29.328Z,16.26
2019-01-20T06:00:56.571Z,16.26
2019-01-20T06:03:23.726Z,16.28
2019-01-20T06:05:50.942Z,16.28
2019-01-20T06:08:18.118Z,16.29
2019-01-20T06:10:45.302Z,16.28
2019-01-20T06:13:12.518Z,16.27
2019-01-20T06:15:39.746Z,16.28
2019-01-20T06:18:07.006Z,16.26
2019-01-20T06:20:34.190Z,16.27
2019-01-20T06:23:01.374Z,16.27
2019-01-20T06:25:28.566Z,16.27
2019-01-20T06:27:55.725Z,16.27
2019-01-20T06:30:31.018Z,16.31
2019-01-20T06:32:58.182Z,16.34
2019-01-20T06:35:25.334Z,16.31
2019-01-20T06:37:52.497Z,16.28
2019-01-20T06:40:19.711Z,16.23
2019-01-20T06:42:46.885Z,16.29
2019-01-20T06:45:14.142Z,16.27
2019-01-20T06:47:41.346Z,16.27
2019-01-20T06:50:10.343Z,16.31
2019-01-20T06:52:37.549Z,16.30
2019-01-20T06:55:05.066Z,16.29
2019-01-20T06:57:32.246Z,16.24
2019-01-20T06:59:59.413Z,16.24
2019-01-20T07:02:26.606Z,16.33
2019-01-20T07:04:53.774Z,16.32
2019-01-20T07:07:21.143Z,16.30
2019-01-20T07:09:48.296Z,16.32
2019-01-20T07:12:15.457Z,16.30
2019-01-20T07:14:42.659Z,16.32
2019-01-20T07:17:09.892Z,16.36
2019-01-20T07:19:37.084Z,16.32
2019-01-20T07:22:04.242Z,16.32
2019-01-20T07:24:31.461Z,16.30
2019-01-20T07:26:58.626Z,16.29
2019-01-20T07:29:25.832Z,16.34
2019-01-20T07:31:53.023Z,16.37
2019-01-20T07:34:20.202Z,16.37
2019-01-20T07:36:47.404Z,16.34
2019-01-20T07:39:14.627Z,16.32
2019-01-20T07:41:41.804Z,16.34
2019-01-20T07:44:08.975Z,16.34
2019-01-20T07:46:36.218Z,16.35
2019-01-20T07:49:03.402Z,16.35
2019-01-20T07:51:30.603Z,16.38
2019-01-20T07:53:57.763Z,16.44
2019-01-20T07:56:24.992Z,16.41
2019-01-20T07:58:52.128Z,16.38
2019-01-20T08:01:19.372Z,16.36
2019-01-20T08:03:46.564Z,16.36
2019-01-20T08:06:13.802Z,16.39
2019-01-20T08:08:40.997Z,16.39
2019-01-20T08:11:08.256Z,16.39
2019-01-20T08:13:35.429Z,16.41
2019-01-20T08:16:02.633Z,16.45
2019-01-20T08:18:29.835Z,16.41
2019-01-20T08:20:57.018Z,16.39
2019-01-20T08:23:24.348Z,16.45
2019-01-20T08:25:51.543Z,16.44
2019-01-20T08:28:18.741Z,16.43
2019-01-20T08:30:45.971Z,16.43
2019-01-20T08:33:13.165Z,16.47
2019-01-20T08:35:40.376Z,16.48
2019-01-20T08:38:07.567Z,16.54
2019-01-20T08:40:34.775Z,16.54
2019-01-20T08:43:01.983Z,16.54
2019-01-20T08:46:09.560Z,16.55
2019-01-20T08:48:36.706Z,16.58
2019-01-20T08:51:04.625Z,16.56
2019-01-20T08:53:31.806Z,16.56
2019-01-20T08:55:59.027Z,16.54
2019-01-20T08:58:26.204Z,16.54
2019-01-20T09:00:53.383Z,16.54
2019-01-20T09:03:20.854Z,16.61
2019-01-20T09:05:48.449Z,16.62
2019-01-20T09:08:15.638Z,16.63
2019-01-20T09:10:42.801Z,16.63
2019-01-20T09:13:10.406Z,16.58
2019-01-20T09:15:37.726Z,16.61
2019-01-20T09:18:05.244Z,16.65
2019-01-20T09:20:32.457Z,16.67
2019-01-20T09:22:59.657Z,16.67
2019-01-20T09:25:26.864Z,16.68
2019-01-20T09:27:54.084Z,16.68
2019-01-20T09:30:21.306Z,16.73
2019-01-20T09:32:48.538Z,16.74
2019-01-20T09:35:15.691Z,16.72
2019-01-20T09:37:42.863Z,16.80
2019-01-20T09:40:11.083Z,16.80
2019-01-20T09:42:38.293Z,16.85
2019-01-20T09:45:08.472Z,16.86
2019-01-20T09:47:35.672Z,16.85
2019-01-20T09:50:03.193Z,16.84
2019-01-20T09:52:30.362Z,16.84
2019-01-20T09:54:57.543Z,16.88
2019-01-20T09:57:24.720Z,16.88
2019-01-20T09:59:51.897Z,16.87
2019-01-20T10:02:19.126Z,16.89
2019-01-20T10:04:46.359Z,16.95
2019-01-20T10:07:13.609Z,16.95
2019-01-20T10:09:40.792Z,16.95
2019-01-20T10:12:08.029Z,16.97
2019-01-20T10:14:35.203Z,16.97
2019-01-20T10:17:02.524Z,16.97
2019-01-20T10:19:29.710Z,16.99
2019-01-20T10:21:56.927Z,16.99
2019-01-20T10:24:24.101Z,17.05
2019-01-20T10:26:51.350Z,17.06
2019-01-20T10:29:18.545Z,17.01
2019-01-20T10:31:45.754Z,17.06
2019-01-20T10:34:12.958Z,17.11
2019-01-20T10:36:40.173Z,17.14
2019-01-20T10:39:10.770Z,17.14
2019-01-20T10:41:37.959Z,17.15
2019-01-20T10:44:05.168Z,17.15
2019-01-20T10:46:32.345Z,17.17
2019-01-20T10:48:59.549Z,17.17
2019-01-20T10:51:26.749Z,17.13
2019-01-20T10:53:53.997Z,17.13
2019-01-20T10:56:21.195Z,17.17
2019-01-20T10:58:48.357Z,17.17
2019-01-20T11:01:15.579Z,17.15
2019-01-20T11:03:42.743Z,17.13
2019-01-20T11:06:10.099Z,17.13
2019-01-20T11:08:37.283Z,17.18
2019-01-20T11:11:04.501Z,17.24
2019-01-20T11:13:31.751Z,17.24
2019-01-20T11:15:58.958Z,17.24
2019-01-20T11:18:26.114Z,17.24
2019-01-20T11:20:53.436Z,17.20
2019-01-20T11:23:22.373Z,17.24
2019-01-20T11:25:49.567Z,17.24
2019-01-20T11:28:16.782Z,17.25
2019-01-20T11:30:43.973Z,17.25
2019-01-20T11:33:11.183Z,17.27
2019-01-20T11:35:38.385Z,17.31
2019-01-20T11:38:05.736Z,17.31
2019-01-20T11:40:33.213Z,17.34
2019-01-20T11:43:00.404Z,17.34
2019-01-20T11:45:29.178Z,17.35
2019-01-20T11:47:56.362Z,17.31
2019-01-20T11:50:23.627Z,17.32
2019-01-20T11:52:50.870Z,17.35
2019-01-20T11:55:19.254Z,17.35
2019-01-20T11:57:46.456Z,17.35
2019-01-20T12:00:24.927Z,17.32
2019-01-20T12:02:52.114Z,17.30
2019-01-20T12:05:19.395Z,17.32
2019-01-20T12:07:46.642Z,17.35
2019-01-20T12:10:13.848Z,17.34
2019-01-20T12:12:42.367Z,17.37
2019-01-20T12:15:10.584Z,17.36
2019-01-20T12:17:37.813Z,17.36
2019-01-20T12:20:06.917Z,17.36
2019-01-20T12:22:34.105Z,17.36
2019-01-20T12:25:01.280Z,17.42
2019-01-20T12:27:28.458Z,17.42
2019-01-20T12:29:55.668Z,17.45
2019-01-20T12:32:22.888Z,17.43
2019-01-20T12:34:50.226Z,17.45
2019-01-20T12:37:17.395Z,17.45
2019-01-20T12:39:44.563Z,17.45
2019-01-20T12:42:11.793Z,17.43
2019-01-20T12:44:38.972Z,17.43
2019-01-20T12:47:06.165Z,17.40
2019-01-20T12:49:33.336Z,17.45
2019-01-20T12:52:00.582Z,17.55
2019-01-20T12:54:27.774Z,17.55
2019-01-20T12:56:54.980Z,17.66
2019-01-20T12:59:22.189Z,17.68
2019-01-20T13:01:49.418Z,17.72
2019-01-20T13:04:16.621Z,17.72
2019-01-20T13:06:43.786Z,17.70
2019-01-20T13:09:10.998Z,17.75
2019-01-20T13:11:38.169Z,17.78
2019-01-20T13:14:05.367Z,17.77
2019-01-20T13:16:32.534Z,17.78
2019-01-20T13:18:59.747Z,17.84
2019-01-20T13:21:26.935Z,17.92
2019-01-20T13:23:54.172Z,18.00
2019-01-20T13:26:21.387Z,18.01
2019-01-20T13:28:48.622Z,18.01
2019-01-20T13:31:15.796Z,18.05
2019-01-20T13:33:42.987Z,18.13
2019-01-20T13:36:10.220Z,18.14
2019-01-20T13:38:37.383Z,18.15
2019-01-20T13:41:12.117Z,18.22
2019-01-20T13:43:39.287Z,18.30
2019-01-20T13:46:06.428Z,18.33
2019-01-20T13:48:33.623Z,18.40
2019-01-20T13:51:00.814Z,18.44
2019-01-20T13:53:28.000Z,18.51
2019-01-20T13:56:01.217Z,18.53
2019-01-20T13:58:24.254Z,18.52
2019-01-20T14:00:51.440Z,18.55
2019-01-20T14:03:18.621Z,18.54
2019-01-20T14:05:45.789Z,18.53
2019-01-20T14:08:13.015Z,18.50
2019-01-20T14:10:40.183Z,18.50
2019-01-20T14:13:07.402Z,18.47
2019-01-20T14:15:34.538Z,18.48
2019-01-20T14:18:01.735Z,18.47
2019-01-20T14:20:28.894Z,18.48
2019-01-20T14:22:56.109Z,18.47
2019-01-20T14:25:24.189Z,18.46
2019-01-20T14:27:51.371Z,18.47
2019-01-20T14:30:21.066Z,18.43
2019-01-20T14:32:48.232Z,18.49
2019-01-20T14:35:15.443Z,18.48
2019-01-20T14:37:42.638Z,18.48
2019-01-20T14:40:11.305Z,18.51
2019-01-20T14:42:38.468Z,18.50
2019-01-20T14:45:06.550Z,18.47
2019-01-20T14:47:33.730Z,18.44
2019-01-20T14:50:00.976Z,18.44
2019-01-20T14:52:28.168Z,18.43
2019-01-20T14:54:55.339Z,18.44
2019-01-20T14:57:22.533Z,18.39
2019-01-20T14:59:49.702Z,18.38
2019-01-20T15:02:17.005Z,18.34
2019-01-20T15:04:44.194Z,18.37
2019-01-20T15:07:11.392Z,18.43
2019-01-20T15:09:38.642Z,18.45
2019-01-20T15:12:05.833Z,18.39
2019-01-20T15:14:33.050Z,18.36
2019-01-20T15:17:01.077Z,18.31
2019-01-20T15:19:28.424Z,18.29
2019-01-20T15:21:55.624Z,18.25
2019-01-20T15:24:22.921Z,18.22
2019-01-20T15:26:50.228Z,18.18
2019-01-20T15:29:17.409Z,18.08
2019-01-20T15:31:44.643Z,18.03
2019-01-20T15:34:11.870Z,17.99
2019-01-20T15:36:39.043Z,17.92
2019-01-20T15:39:07.352Z,17.89
2019-01-20T15:41:34.616Z,17.85
2019-01-20T15:44:01.790Z,17.81
2019-01-20T15:46:28.986Z,17.79
2019-01-20T15:48:56.170Z,17.77
2019-01-20T15:51:23.371Z,17.76
2019-01-20T15:53:50.545Z,17.74
2019-01-20T15:56:17.730Z,17.73
2019-01-20T15:58:45.037Z,17.69
2019-01-20T16:01:12.233Z,17.64
2019-01-20T16:03:39.438Z,17.64
2019-01-20T16:06:06.643Z,17.58
2019-01-20T16:08:33.838Z,17.51
2019-01-20T16:11:01.181Z,17.48
2019-01-20T16:13:28.351Z,17.46
2019-01-20T16:15:55.528Z,17.45
2019-01-20T16:18:22.710Z,17.41
2019-01-20T16:20:49.912Z,17.40
2019-01-20T16:23:17.137Z,17.41
2019-01-20T16:25:44.350Z,17.41
2019-01-20T16:28:11.601Z,17.40
2019-01-20T16:30:39.573Z,17.38
2019-01-20T16:33:06.752Z,17.30
2019-01-20T16:35:33.976Z,17.30
2019-01-20T16:38:02.014Z,17.26
2019-01-20T16:40:29.298Z,17.24
2019-01-20T16:42:56.502Z,17.24
2019-01-20T16:45:42.175Z,17.24
2019-01-20T16:48:07.582Z,17.22
2019-01-20T16:50:34.817Z,17.20
2019-01-20T16:53:02.006Z,17.18
2019-01-20T16:55:29.154Z,17.12
2019-01-20T16:57:56.371Z,17.10
2019-01-20T17:00:28.383Z,17.11
2019-01-20T17:02:55.655Z,17.11
2019-01-20T17:05:26.798Z,17.11
2019-01-20T17:07:51.979Z,17.04
2019-01-20T17:10:21.274Z,17.06
2019-01-20T17:12:48.462Z,17.06
2019-01-20T17:15:18.156Z,17.06
2019-01-20T17:17:45.467Z,17.02
2019-01-20T17:20:13.708Z,17.06
2019-01-20T17:22:40.925Z,17.02
2019-01-20T17:25:08.667Z,16.97
2019-01-20T17:27:35.921Z,16.99
2019-01-20T17:30:04.158Z,16.99
2019-01-20T17:32:31.333Z,16.95
2019-01-20T17:34:58.573Z,16.97
2019-01-20T17:37:25.800Z,16.97
2019-01-20T17:39:53.039Z,16.94
2019-01-20T17:42:20.232Z,16.91
2019-01-20T17:44:47.553Z,16.91
2019-01-20T17:47:14.710Z,16.91
2019-01-20T17:49:41.910Z,16.87
2019-01-20T17:52:09.163Z,16.87
2019-01-20T17:54:36.375Z,16.86
2019-01-20T17:57:03.531Z,16.86
2019-01-20T17:59:30.852Z,16.86
2019-01-20T18:01:58.128Z,16.86
2019-01-20T18:04:25.312Z,16.83
2019-01-20T18:06:52.514Z,16.86
2019-01-20T18:09:19.754Z,16.86
2019-01-20T18:11:47.089Z,16.83
2019-01-20T18:14:14.250Z,16.81
2019-01-20T18:16:41.411Z,16.85
2019-01-20T18:19:08.600Z,16.85
2019-01-20T18:21:35.757Z,16.82
2019-01-20T18:24:03.098Z,16.80
2019-01-20T18:26:30.378Z,16.81
2019-01-20T18:28:57.571Z,16.81
2019-01-20T18:31:24.784Z,16.78
2019-01-20T18:33:51.969Z,16.78
2019-01-20T18:36:19.272Z,16.77
2019-01-20T18:38:46.434Z,16.77
2019-01-20T18:41:13.604Z,16.74
2019-01-20T18:43:40.807Z,16.77
2019-01-20T18:46:08.031Z,16.77
2019-01-20T18:48:35.241Z,16.74
2019-01-20T18:51:02.383Z,16.68
2019-01-20T18:53:29.616Z,16.68
2019-01-20T18:55:56.791Z,16.68
2019-01-20T18:58:23.992Z,16.70
2019-01-20T19:00:52.163Z,16.70
2019-01-20T19:03:19.363Z,16.64
2019-01-20T19:05:46.570Z,16.64
2019-01-20T19:08:13.748Z,16.64
2019-01-20T19:10:41.014Z,16.66
2019-01-20T19:13:08.170Z,16.65
2019-01-20T19:15:35.407Z,16.64
2019-01-20T19:18:02.601Z,16.64
2019-01-20T19:20:29.817Z,16.63
2019-01-20T19:22:57.006Z,16.62
2019-01-20T19:25:24.259Z,16.60
2019-01-20T19:27:51.471Z,16.59
2019-01-20T19:30:20.817Z,16.56
2019-01-20T19:32:48.054Z,16.53
2019-01-20T19:35:15.238Z,16.56
2019-01-20T19:37:42.465Z,16.58
2019-01-20T19:40:09.878Z,16.53
2019-01-20T19:42:37.080Z,16.53
2019-01-20T19:45:05.432Z,16.58
2019-01-20T19:47:32.602Z,16.58
2019-01-20T19:49:59.804Z,16.57
2019-01-20T19:52:27.017Z,16.57
2019-01-20T19:54:54.209Z,16.57
2019-01-20T19:57:21.366Z,16.58
2019-01-20T19:59:48.577Z,16.52
2019-01-20T20:02:15.778Z,16.51
2019-01-20T20:04:42.964Z,16.51
2019-01-20T20:07:10.192Z,16.44
2019-01-20T20:09:37.486Z,16.44
2019-01-20T20:12:04.634Z,16.58
2019-01-20T20:14:31.868Z,16.60
2019-01-20T20:16:59.029Z,16.50
2019-01-20T20:19:26.266Z,16.50
2019-01-20T20:21:53.483Z,16.47
2019-01-20T20:24:25.316Z,16.43
2019-01-20T20:26:49.770Z,16.49
2019-01-20T20:29:17.253Z,16.53
2019-01-20T20:31:44.689Z,16.57
2019-01-20T20:34:11.988Z,16.61
2019-01-20T20:36:41.330Z,16.61
2019-01-20T20:39:08.918Z,16.61
2019-01-20T20:41:36.436Z,16.59
2019-01-20T20:44:03.667Z,16.62
2019-01-20T20:46:30.892Z,16.61
2019-01-20T20:48:58.095Z,16.69
2019-01-20T20:51:25.302Z,16.69
2019-01-20T20:53:52.498Z,16.64
2019-01-20T20:56:19.790Z,16.57
2019-01-20T20:58:46.976Z,16.52
2019-01-20T21:01:14.180Z,16.53
2019-01-20T21:03:41.566Z,16.60
2019-01-20T21:06:08.758Z,16.60
2019-01-20T21:08:36.054Z,16.53
2019-01-20T21:11:03.240Z,16.50
2019-01-20T21:13:30.407Z,16.45
2019-01-20T21:15:57.627Z,16.45
2019-01-20T21:18:24.835Z,16.45
2019-01-20T21:20:52.763Z,16.46
2019-01-20T21:23:19.989Z,16.46
2019-01-20T21:25:47.210Z,16.42
2019-01-20T21:28:14.445Z,16.42
2019-01-20T21:30:41.604Z,16.46
2019-01-20T21:33:08.759Z,16.45
2019-01-20T21:35:35.985Z,16.37
2019-01-20T21:38:07.001Z,16.40
2019-01-20T21:40:32.229Z,16.40
2019-01-20T21:42:59.389Z,16.39
2019-01-20T21:45:26.606Z,16.36
2019-01-20T21:47:53.819Z,16.39
2019-01-20T21:50:26.244Z,16.42
2019-01-20T21:52:53.434Z,16.38
2019-01-20T21:55:20.585Z,16.37
2019-01-20T21:57:47.878Z,16.41
2019-01-20T22:00:17.314Z,16.35
2019-01-20T22:02:44.516Z,16.35
2019-01-20T22:05:11.724Z,16.37
2019-01-20T22:07:38.887Z,16.37
2019-01-20T22:10:09.114Z,16.35
2019-01-20T22:12:36.299Z,16.33
2019-01-20T22:15:03.701Z,16.32
2019-01-20T22:17:30.854Z,16.33
2019-01-20T22:19:58.200Z,16.33
2019-01-20T22:22:25.379Z,16.30
2019-01-20T22:24:52.540Z,16.34
2019-01-20T22:27:19.727Z,16.32
2019-01-20T22:29:46.897Z,16.29
2019-01-20T22:32:14.283Z,16.28
2019-01-20T22:34:41.455Z,16.29
2019-01-20T22:37:08.679Z,16.23
2019-01-20T22:39:35.980Z,16.25
2019-01-20T22:42:03.202Z,16.25
2019-01-20T22:44:30.393Z,16.24
2019-01-20T22:47:00.228Z,16.28
2019-01-20T22:49:26.657Z,16.24
2019-01-20T22:51:53.909Z,16.20
2019-01-20T22:54:21.089Z,16.24
2019-01-20T22:56:48.266Z,16.25
2019-01-20T22:59:15.596Z,16.22
2019-01-20T23:01:42.870Z,16.18
2019-01-20T23:04:10.071Z,16.17
2019-01-20T23:06:37.259Z,16.18
2019-01-20T23:09:06.769Z,16.18
2019-01-20T23:11:34.152Z,16.16
2019-01-20T23:14:01.379Z,16.15
2019-01-20T23:16:28.557Z,16.12
2019-01-20T23:18:55.741Z,16.17
2019-01-20T23:21:22.905Z,16.16
2019-01-20T23:23:50.116Z,16.13
2019-01-20T23:26:17.322Z,16.12
2019-01-20T23:28:44.684Z,16.13
2019-01-20T23:31:11.849Z,16.16
2019-01-20T23:33:39.058Z,16.18
2019-01-20T23:36:06.275Z,16.17
2019-01-20T23:38:33.499Z,16.17
2019-01-20T23:41:01.177Z,16.17
2019-01-20T23:43:28.339Z,16.15
2019-01-20T23:45:55.485Z,16.14
2019-01-20T23:48:22.811Z,16.12
2019-01-20T23:50:49.979Z,16.15
2019-01-20T23:53:17.176Z,16.14
2019-01-20T23:55:44.377Z,16.10
2019-01-20T23:58:11.608Z,16.09
